• Join FlightAware (Why Join?)
  • Login
  • US Flag 
01:51PM EDT


 

Airport Tracker/Info


-or-


 

Live Flight TrackerFlight Track Log ✈ DAL907 ✈ 02-May-2013 ✈ KATL - KBNA

Flight Track Log - Related Links

Times and Time Zones

All times are in EDT time to prevent confusion due to time zone crossing. See the DAL907 flight status page for this flight to view local times or setup timezone preferences in your user account.

Time Position Orientation Groundspeed Altitude Reporting Facility
EDT Latitude Longitude Course Direction KTS MPH feet Rate Location/Type
03:15PM 33.6667 -84.3500 328° Northwest 208 239 2,800  Level Atlanta TRACON
03:16PM 33.7000 -84.2833 59° Northeast 238 274 5,200 2,280 Climbing Atlanta TRACON
03:17PM 33.7667 -84.2833 360° North 290 334 7,400 1,860 Climbing Atlanta TRACON
03:18PM 34.0449 -84.5242 349° North  Level FlightAware Approximate
03:19PM 34.1414 -84.5499 347° North  Level FlightAware Approximate
03:19PM 33.9522 -84.4094 331° Northwest 325 374 11,700  Level Atlanta Center
03:20PM 34.2371 -84.5949 328° Northwest  Level FlightAware Approximate
03:20PM 34.0378 -84.4750 328° Northwest 356 410 14,300  Level Atlanta Center
03:21PM 34.1147 -84.5331 328° Northwest 363 418 15,600 1,500 Climbing Atlanta Center
03:22PM 34.2186 -84.6092 329° Northwest 394 453 17,400 1,680 Climbing Atlanta Center
03:23PM 34.3186 -84.6775 331° Northwest 400 460 19,000 1,740 Climbing Atlanta Center
03:24PM 34.4100 -84.7514 326° Northwest 405 466 20,900 1,680 Climbing Atlanta Center
03:25PM 34.4972 -84.8428 319° Northwest 405 466 22,400 1,260 Climbing Atlanta Center
03:26PM 34.5883 -84.9344 320° Northwest 420 483 23,500 1,200 Climbing Atlanta Center
03:27PM 34.6775 -84.9986 329° Northwest 427 491 24,800 1,140 Climbing Atlanta Center
03:28PM 34.7897 -85.0581 336° Northwest 422 486 25,800 600 Climbing Atlanta Center
03:29PM 34.9039 -85.1278 333° Northwest 433 498 26,000 60 Climbing Atlanta Center
03:30PM 35.0053 -85.2181 324° Northwest 450 518 26,000 -480 Level Atlanta Center
03:32PM 35.1672 -85.4092 316° Northwest 459 528 24,800 -780 Descending Memphis Center
03:33PM 35.2486 -85.5161 313° West 448 516 23,900 -420 Descending Memphis Center
03:34PM 35.3319 -85.6233 314° West 441 507 24,000 -1,380 Climbing Memphis Center
03:35PM 35.4175 -85.7306 314° West 435 501 21,200 -2,760 Descending Memphis Center
03:36PM 35.4919 -85.8258 314° West 435 501 18,500 -2,820 Descending Memphis Center
03:37PM 35.5708 -85.9364 311° West 435 501 15,600 -3,240 Descending Memphis Center
03:38PM 35.6497 -86.0419 313° West 424 488 12,100 -2,280 Descending Memphis Center
03:39PM 35.7308 -86.1528 312° West 411 473 11,100 -600 Descending Memphis Center
03:40PM 35.8006 -86.2492 312° West 395 455 11,000 -60 Descending Memphis Center
03:41PM 35.8725 -86.3428 313° West 385 443 11,000 -300 Level Memphis Center
03:42PM 35.9356 -86.4244 314° West 354 407 10,400 -900 Descending Memphis Center
03:43PM 36.0019 -86.4775 327° Northwest 290 334 9,200 -1,440 Descending Memphis Center
03:44PM 36.0817 -86.4917 352° North 284 327 7,600 -1,680 Descending Memphis Center
03:45PM 36.1592 -86.5086 350° North 279 321 5,900 -1,740 Descending Memphis Center
03:46PM 36.2250 -86.5417 338° Northwest 271 312 4,200 -1,680 Descending Memphis Center
03:47PM 36.2381 -86.6258 281° West 229 264 2,600 -1,620 Descending Memphis Center